Ludowici, GA

11:34 AM EDT en Septiembre 17, 2014 (GMT -0400)
Glynco Jetport | Change Station
CLOSE
Current Station
Aeropuerto
Location: Brunswick,
Altura: 26 ft
Estaciones meteorológicas cercanas

Alt 26 ft 31.26 °N, 81.47 °W | Updated 19 minutes ago

Despejado
Despejado
82 ° F
Sensación térmica 86 ° F
N
4
Viento Variable Viento desde Norte

Hoy
Alta -- | Baja -- ° F
--% Posibilidad de precipitaciones
Ayer
Alta -- | Baja -- ° F
Precip. -- pul
7:12 AM 7:30 PM
Creciente menguante, 35% visible
Presión 29.94 pul
Visibilidad 10.0 Millas
Nubes Despejado
Índice de calor 86 ° F
Punto de rocío 70 ° F
Humedad 66%
Precipitaciones 0.00 pul
Espesor de la nieve No disponible.
UV 8 de una escala de 12
Polen 7.80 de una escala de 12
Calidad del aire No disponible.
Flu Activity No disponible.
METAR KBQK 171515Z AUTO 35003KT 10SM CLR 28/21 A2994 RMK AO1

More Conditions Fewer Conditions

Presión 29.94 pul
Visibilidad 10.0 Millas
Nubes Despejado
Índice de calor 86 ° F
Punto de rocío 70 ° F
Humedad 66%
Precipitaciones 0.00 pul
Espesor de la nieve No disponible.
UV 8 de una escala de 12
Polen 7.80 de una escala de 12
Calidad del aire No disponible.
Flu Activity No disponible.
METAR KBQK 171515Z AUTO 35003KT 10SM CLR 28/21 A2994 RMK AO1

More Conditions Fewer Conditions

10-Day Weather Forecast

Almanac

Astronomía

Sep. 17, 2014 Salida Puesta
Hora real 7:12 AM EDT 7:30 PM EDT
Crepúsculo civil 6:47 AM EDT 7:54 PM EDT
Crepúsculo náutico 6:19 AM EDT 8:22 PM EDT
Crepúsculo astronómico 5:50 AM EDT 8:51 PM EDT
Luna 1:26 AM EDT 3:24 PM EDT
Horas de luz 13h 06m
Horas de luz
12h 18m
Tomorrow will be 1m 56s shorter.
Creciente menguante, 35% of the Moon is Illuminated
Hoy
Creciente menguante
Sep 24
Nueva
Oct 1
Cuarto creciente
Oct 8
Luna llena
Oct 15
Cuarto menguante

Extremos de hoy

Máximos del estado Bajos del estado

Community

WunderPhotos

Upload Photos

1,754,068 ¡fotos cargadas!

WunderBlogs® & News

Nearby

Grosos de nieve

Estación Profundido Altura
No tenemos constancia de nieve nueva.

Actividad de terremotos

Ciudad Distance Mag. Tiempo y dato
No hay informes recientes de la actividad sísmica.
Magnitud mínima muestra es 2,5.

Temperaturas de aguas costeras

Lugar Temperatura
Sin partes meteorológicos de las estaciones

Estaciones meteorológicas cercanas